createdAt,value
2023-03-15T00:00:25.394Z,92666.63
2023-03-15T00:02:52.466Z,92664.94
2023-03-15T00:05:19.594Z,92667.19
2023-03-15T00:07:47.977Z,92663.09
2023-03-15T00:10:14.876Z,92654.09
2023-03-15T00:12:42.750Z,92651.34
2023-03-15T00:15:11.224Z,92657.66
2023-03-15T00:17:38.134Z,92661.28
2023-03-15T00:20:06.654Z,92668.41
2023-03-15T00:22:33.578Z,92656.69
2023-03-15T00:25:02.042Z,92652.00
2023-03-15T00:27:29.000Z,92656.34
2023-03-15T00:29:56.013Z,92657.75
2023-03-15T00:32:23.088Z,92656.66
2023-03-15T00:34:50.106Z,92650.94
2023-03-15T00:37:17.322Z,92649.31
2023-03-15T00:39:45.617Z,92652.59
2023-03-15T00:42:17.421Z,92652.25
2023-03-15T00:44:44.836Z,92649.47
2023-03-15T00:47:12.871Z,92647.16
2023-03-15T00:49:40.186Z,92649.47
2023-03-15T00:52:07.888Z,92636.41
2023-03-15T00:54:53.506Z,92632.78
2023-03-15T00:57:22.340Z,92633.66
2023-03-15T00:59:49.386Z,92629.44
2023-03-15T01:02:16.418Z,92621.81
2023-03-15T01:04:44.736Z,92617.34
2023-03-15T01:07:12.233Z,92612.09
2023-03-15T01:09:39.279Z,92608.94
2023-03-15T01:12:06.632Z,92608.78
2023-03-15T01:14:37.227Z,92607.31
2023-03-15T01:17:04.163Z,92605.00
2023-03-15T01:19:31.122Z,92601.53
2023-03-15T01:21:58.100Z,92598.59
2023-03-15T01:24:25.138Z,92595.41
2023-03-15T01:26:52.082Z,92593.81
2023-03-15T01:29:19.494Z,92596.94
2023-03-15T01:31:47.906Z,92597.09
2023-03-15T01:34:14.927Z,92589.03
2023-03-15T01:36:41.872Z,92586.66
2023-03-15T01:39:09.031Z,92586.66
2023-03-15T01:41:41.530Z,92581.94
2023-03-15T01:44:12.662Z,92580.19
2023-03-15T01:46:39.705Z,92573.69
2023-03-15T01:49:16.828Z,92571.41
2023-03-15T01:51:47.184Z,92569.44
2023-03-15T01:54:19.683Z,92569.44
2023-03-15T01:56:52.672Z,92553.38
2023-03-15T01:59:24.996Z,92562.16
2023-03-15T02:01:54.546Z,92556.63
2023-03-15T02:04:26.101Z,92566.03
2023-03-15T02:06:59.177Z,92549.50
2023-03-15T02:09:34.671Z,92548.97
2023-03-15T02:12:01.987Z,92541.56
2023-03-15T02:14:29.392Z,92537.72
2023-03-15T02:16:57.250Z,92538.22
2023-03-15T02:19:48.825Z,92527.44
2023-03-15T02:22:26.297Z,92529.78
2023-03-15T02:24:58.432Z,92526.44
2023-03-15T02:27:29.378Z,92523.97
2023-03-15T02:29:56.490Z,92523.53
2023-03-15T02:32:23.567Z,92517.34
2023-03-15T02:34:50.507Z,92517.78
2023-03-15T02:37:17.412Z,92522.59
2023-03-15T02:39:44.419Z,92519.72
2023-03-15T02:42:12.945Z,92521.81
2023-03-15T02:44:44.641Z,92518.47
2023-03-15T02:47:16.570Z,92524.28
2023-03-15T02:49:46.103Z,92517.03
2023-03-15T02:52:14.126Z,92519.44
2023-03-15T02:54:43.656Z,92524.66
2023-03-15T02:57:11.249Z,92521.97
2023-03-15T02:59:38.356Z,92519.69
2023-03-15T03:02:07.894Z,92514.09
2023-03-15T03:04:35.094Z,92515.41
2023-03-15T03:07:02.113Z,92508.88
2023-03-15T03:09:37.634Z,92501.84
2023-03-15T03:12:05.500Z,92494.75
2023-03-15T03:14:33.438Z,92487.06
2023-03-15T03:17:01.912Z,92485.69
2023-03-15T03:19:30.657Z,92487.44
2023-03-15T03:21:57.627Z,92484.25
2023-03-15T03:24:25.947Z,92484.25
2023-03-15T03:26:58.081Z,92484.59
2023-03-15T03:29:28.081Z,92474.00
2023-03-15T03:31:57.509Z,92473.22
2023-03-15T03:34:24.492Z,92473.38
2023-03-15T03:36:52.979Z,92471.47
2023-03-15T03:39:31.595Z,92473.28
2023-03-15T03:42:01.014Z,92463.47
2023-03-15T03:44:28.178Z,92470.78
2023-03-15T03:46:55.130Z,92467.63
2023-03-15T03:49:22.221Z,92476.88
2023-03-15T03:51:49.227Z,92462.59
2023-03-15T03:54:17.802Z,92464.19
2023-03-15T03:56:44.854Z,92460.53
2023-03-15T03:59:11.813Z,92465.16
2023-03-15T04:01:48.558Z,92454.28
2023-03-15T04:04:15.526Z,92449.09
2023-03-15T04:06:45.929Z,92451.31
2023-03-15T04:09:14.971Z,92443.16
2023-03-15T04:11:45.417Z,92438.13
2023-03-15T04:14:13.647Z,92434.56
2023-03-15T04:16:42.078Z,92441.72
2023-03-15T04:19:12.923Z,92440.63
2023-03-15T04:21:47.624Z,92442.53
2023-03-15T04:24:35.364Z,92440.06
2023-03-15T04:27:26.950Z,92435.94
2023-03-15T04:30:08.285Z,92434.53
2023-03-15T04:32:59.068Z,92437.22
2023-03-15T04:35:46.382Z,92426.25
2023-03-15T04:38:46.534Z,92426.59
2023-03-15T04:41:28.203Z,92436.81
2023-03-15T04:44:22.067Z,92435.44
2023-03-15T04:46:49.074Z,92432.53
2023-03-15T04:49:27.083Z,92430.63
2023-03-15T04:52:09.390Z,92437.63
2023-03-15T04:54:49.692Z,92441.13
2023-03-15T04:57:33.539Z,92444.94
2023-03-15T05:00:15.472Z,92434.56
2023-03-15T05:03:00.930Z,92442.03
2023-03-15T05:05:45.622Z,92442.50
2023-03-15T05:08:23.389Z,92443.00
2023-03-15T05:11:12.952Z,92441.94
2023-03-15T05:14:12.231Z,92439.13
2023-03-15T05:16:59.693Z,92440.41
2023-03-15T05:19:34.760Z,92437.06
2023-03-15T05:22:02.247Z,92433.78
2023-03-15T05:24:47.608Z,92433.63
2023-03-15T05:27:24.429Z,92432.03
2023-03-15T05:30:08.111Z,92428.69
2023-03-15T05:32:45.026Z,92433.50
2023-03-15T05:35:34.970Z,92427.94
2023-03-15T05:38:26.952Z,92421.59
2023-03-15T05:41:12.484Z,92424.78
2023-03-15T05:43:46.889Z,92423.34
2023-03-15T05:46:32.030Z,92414.47
2023-03-15T05:49:19.266Z,92420.50
2023-03-15T05:51:54.200Z,92424.00
2023-03-15T05:54:41.497Z,92430.69
2023-03-15T05:57:28.696Z,92429.41
2023-03-15T06:00:15.323Z,92427.19
2023-03-15T06:02:42.767Z,92428.28
2023-03-15T06:05:39.665Z,92425.69
2023-03-15T06:08:11.882Z,92426.50
2023-03-15T06:10:42.343Z,92417.69
2023-03-15T06:13:11.032Z,92411.28
2023-03-15T06:15:38.265Z,92415.56
2023-03-15T06:18:08.793Z,92421.09
2023-03-15T06:20:35.983Z,92422.31
2023-03-15T06:23:10.351Z,92417.69
2023-03-15T06:25:45.521Z,92422.38
2023-03-15T06:28:13.091Z,92408.53
2023-03-15T06:30:45.175Z,92398.81
2023-03-15T06:33:12.715Z,92404.97
2023-03-15T06:35:40.053Z,92415.03
2023-03-15T06:38:07.010Z,92413.16
2023-03-15T06:40:35.285Z,92414.16
2023-03-15T06:43:06.029Z,92407.41
2023-03-15T06:45:33.906Z,92403.78
2023-03-15T06:48:01.031Z,92409.88
2023-03-15T06:50:37.269Z,92413.31
2023-03-15T06:53:11.465Z,92409.09
2023-03-15T06:55:39.847Z,92408.28
2023-03-15T06:58:06.784Z,92401.84
2023-03-15T07:00:33.710Z,92399.63
2023-03-15T07:03:00.811Z,92407.81
2023-03-15T07:05:27.903Z,92401.78
2023-03-15T07:07:54.840Z,92394.88
2023-03-15T07:10:21.783Z,92398.34
2023-03-15T07:12:50.178Z,92396.13
2023-03-15T07:15:17.698Z,92387.38
2023-03-15T07:17:44.653Z,92386.53
2023-03-15T07:20:12.434Z,92388.38
2023-03-15T07:22:39.607Z,92401.50
2023-03-15T07:25:07.652Z,92402.47
2023-03-15T07:27:34.571Z,92401.84
2023-03-15T07:30:03.177Z,92393.44
2023-03-15T07:32:31.991Z,92378.91
2023-03-15T07:35:00.666Z,92384.91
2023-03-15T07:37:28.233Z,92394.25
2023-03-15T07:39:55.641Z,92394.31
2023-03-15T07:42:22.608Z,92391.00
2023-03-15T07:44:52.317Z,92394.81
2023-03-15T07:47:20.925Z,92383.31
2023-03-15T07:49:47.916Z,92385.09
2023-03-15T07:52:14.994Z,92376.56
2023-03-15T07:54:42.082Z,92384.88
2023-03-15T07:57:09.225Z,92389.44
2023-03-15T07:59:36.304Z,92388.06
2023-03-15T08:02:03.464Z,92384.72
2023-03-15T08:04:31.886Z,92381.72
2023-03-15T08:06:58.991Z,92383.88
2023-03-15T08:09:25.920Z,92381.31
2023-03-15T08:11:52.901Z,92382.25
2023-03-15T08:14:19.926Z,92381.25
2023-03-15T08:16:47.292Z,92372.53
2023-03-15T08:19:14.323Z,92364.91
2023-03-15T08:21:45.629Z,92359.66
2023-03-15T08:24:12.869Z,92361.56
2023-03-15T08:26:39.833Z,92363.16
2023-03-15T08:29:06.827Z,92351.59
2023-03-15T08:31:33.780Z,92349.88
2023-03-15T08:34:00.959Z,92359.41
2023-03-15T08:36:27.920Z,92356.03
2023-03-15T08:38:56.338Z,92362.63
2023-03-15T08:41:23.264Z,92358.09
2023-03-15T08:43:50.267Z,92342.50
2023-03-15T08:46:17.743Z,92334.47
2023-03-15T08:48:44.776Z,92351.09
2023-03-15T08:51:11.748Z,92347.78
2023-03-15T08:53:38.719Z,92360.78
2023-03-15T08:56:07.566Z,92361.69
2023-03-15T08:58:34.706Z,92362.25
2023-03-15T09:01:01.876Z,92356.94
2023-03-15T09:03:28.977Z,92360.38
2023-03-15T09:05:56.853Z,92357.50
2023-03-15T09:08:25.315Z,92362.47
2023-03-15T09:10:54.995Z,92365.53
2023-03-15T09:13:23.701Z,92364.88
2023-03-15T09:15:51.264Z,92363.97
2023-03-15T09:18:18.551Z,92362.34
2023-03-15T09:20:45.759Z,92360.47
2023-03-15T09:23:13.232Z,92370.03
2023-03-15T09:25:40.550Z,92376.06
2023-03-15T09:28:09.139Z,92367.53
2023-03-15T09:30:38.711Z,92372.88
2023-03-15T09:33:05.756Z,92360.88
2023-03-15T09:35:32.933Z,92364.75
2023-03-15T09:38:00.714Z,92354.03
2023-03-15T09:40:30.240Z,92349.41
2023-03-15T09:43:02.635Z,92349.34
2023-03-15T09:45:40.757Z,92346.66
2023-03-15T09:48:10.210Z,92340.94
2023-03-15T09:50:43.077Z,92335.88
2023-03-15T09:53:14.266Z,92336.13
2023-03-15T09:55:42.159Z,92322.47
2023-03-15T09:58:12.021Z,92328.47
2023-03-15T10:00:44.188Z,92324.63
2023-03-15T10:03:18.583Z,92332.94
2023-03-15T10:05:47.912Z,92338.91
2023-03-15T10:08:17.521Z,92338.72
2023-03-15T10:10:50.256Z,92336.69
2023-03-15T10:13:24.977Z,92335.84
2023-03-15T10:15:57.594Z,92348.72
2023-03-15T10:18:43.041Z,92339.66
2023-03-15T10:21:13.282Z,92335.81
2023-03-15T10:23:45.664Z,92342.28
2023-03-15T10:26:15.845Z,92344.50
2023-03-15T10:28:44.233Z,92335.25
2023-03-15T10:31:22.189Z,92323.91
2023-03-15T10:33:57.558Z,92328.28
2023-03-15T10:36:25.396Z,92330.09
2023-03-15T10:38:52.544Z,92332.88
2023-03-15T10:41:30.482Z,92335.28
2023-03-15T10:44:00.368Z,92331.31
2023-03-15T10:46:29.186Z,92333.16
2023-03-15T10:49:00.770Z,92323.28
2023-03-15T10:51:29.816Z,92329.81
2023-03-15T10:53:59.929Z,92328.47
2023-03-15T10:56:28.802Z,92329.56
2023-03-15T10:59:11.434Z,92334.69
2023-03-15T11:01:41.659Z,92324.13
2023-03-15T11:04:17.848Z,92323.31
2023-03-15T11:06:48.000Z,92321.41
2023-03-15T11:09:16.854Z,92316.66
2023-03-15T11:11:56.224Z,92320.56
2023-03-15T11:14:23.439Z,92315.25
2023-03-15T11:16:53.514Z,92318.06
2023-03-15T11:19:22.505Z,92316.75
2023-03-15T11:21:50.875Z,92323.22
2023-03-15T11:24:23.664Z,92313.53
2023-03-15T11:26:53.723Z,92321.00
2023-03-15T11:29:23.957Z,92324.31
2023-03-15T11:31:53.283Z,92321.66
2023-03-15T11:34:26.847Z,92316.75
2023-03-15T11:37:07.683Z,92304.75
2023-03-15T11:39:39.319Z,92305.34
2023-03-15T11:42:11.105Z,92311.66
2023-03-15T11:44:40.515Z,92302.88
2023-03-15T11:47:14.220Z,92304.78
2023-03-15T11:49:46.772Z,92291.63
2023-03-15T11:52:15.722Z,92299.31
2023-03-15T11:54:44.016Z,92302.41
2023-03-15T11:57:35.443Z,92298.56
2023-03-15T12:00:27.035Z,92298.78
2023-03-15T12:02:56.883Z,92294.59
2023-03-15T12:05:44.066Z,92298.91
2023-03-15T12:08:21.348Z,92282.56
2023-03-15T12:10:49.842Z,92277.84
2023-03-15T12:13:17.927Z,92275.19
2023-03-15T12:15:47.417Z,92272.81
2023-03-15T12:18:18.469Z,92263.63
2023-03-15T12:20:51.047Z,92267.94
2023-03-15T12:23:29.458Z,92264.56
2023-03-15T12:25:58.018Z,92270.19
2023-03-15T12:28:28.671Z,92272.84
2023-03-15T12:30:57.231Z,92270.34
2023-03-15T12:33:26.137Z,92268.78
2023-03-15T12:35:59.878Z,92263.25
2023-03-15T12:38:32.607Z,92262.44
2023-03-15T12:40:59.625Z,92271.97
2023-03-15T12:43:43.032Z,92258.88
2023-03-15T12:46:48.722Z,92258.09
2023-03-15T12:49:30.558Z,92265.03
2023-03-15T12:51:59.817Z,92255.50
2023-03-15T12:54:37.107Z,92263.50
2023-03-15T12:57:05.246Z,92264.72
2023-03-15T12:59:48.831Z,92259.97
2023-03-15T13:02:41.802Z,92256.25
2023-03-15T13:05:23.871Z,92255.28
2023-03-15T13:07:58.303Z,92258.50
2023-03-15T13:10:35.843Z,92250.41
2023-03-15T13:13:10.873Z,92250.56
2023-03-15T13:15:42.911Z,92243.81
2023-03-15T13:18:17.840Z,92241.75
2023-03-15T13:20:57.328Z,92244.13
2023-03-15T13:23:27.898Z,92247.59
2023-03-15T13:26:04.143Z,92254.00
2023-03-15T13:28:37.377Z,92261.09
2023-03-15T13:31:13.371Z,92254.59
2023-03-15T13:33:40.578Z,92253.38
2023-03-15T13:36:15.229Z,92265.59
2023-03-15T13:38:43.434Z,92265.44
2023-03-15T13:41:18.288Z,92256.13
2023-03-15T13:43:45.576Z,92255.88
2023-03-15T13:46:12.666Z,92263.38
2023-03-15T13:48:42.005Z,92261.75
2023-03-15T13:51:15.956Z,92258.91
2023-03-15T13:53:49.757Z,92261.28
2023-03-15T13:56:19.463Z,92265.31
2023-03-15T13:58:46.863Z,92273.66
2023-03-15T14:01:15.083Z,92272.50
2023-03-15T14:03:43.995Z,92266.34
2023-03-15T14:06:21.956Z,92265.56
2023-03-15T14:08:49.793Z,92263.81
2023-03-15T14:11:20.045Z,92259.13
2023-03-15T14:13:49.095Z,92265.44
2023-03-15T14:16:17.927Z,92261.53
2023-03-15T14:18:45.029Z,92251.75
2023-03-15T14:21:16.435Z,92258.75
2023-03-15T14:23:45.386Z,92269.69
2023-03-15T14:26:16.331Z,92262.88
2023-03-15T14:28:48.447Z,92264.28
2023-03-15T14:31:23.408Z,92255.56
2023-03-15T14:33:56.463Z,92259.88
2023-03-15T14:36:30.697Z,92251.16
2023-03-15T14:38:58.906Z,92252.34
2023-03-15T14:41:33.969Z,92254.16
2023-03-15T14:44:01.225Z,92261.28
2023-03-15T14:46:28.561Z,92257.56
2023-03-15T14:48:58.405Z,92256.16
2023-03-15T14:51:31.589Z,92257.22
2023-03-15T14:53:59.670Z,92261.41
2023-03-15T14:56:26.956Z,92255.66
2023-03-15T14:58:56.635Z,92249.34
2023-03-15T15:01:26.015Z,92253.28
2023-03-15T15:03:55.484Z,92260.84
2023-03-15T15:06:22.529Z,92261.06
2023-03-15T15:08:53.387Z,92259.78
2023-03-15T15:11:20.330Z,92260.63
2023-03-15T15:13:47.285Z,92256.13
2023-03-15T15:16:14.394Z,92254.59
2023-03-15T15:18:41.346Z,92256.38
2023-03-15T15:21:13.610Z,92252.00
2023-03-15T15:23:56.914Z,92260.16
2023-03-15T15:26:27.233Z,92271.25
2023-03-15T15:28:54.445Z,92277.59
2023-03-15T15:31:23.112Z,92272.84
2023-03-15T15:33:50.563Z,92276.41
2023-03-15T15:36:21.834Z,92281.72
2023-03-15T15:38:48.777Z,92276.97
2023-03-15T15:41:18.226Z,92284.88
2023-03-15T15:43:46.500Z,92283.69
2023-03-15T15:46:13.662Z,92286.09
2023-03-15T15:48:41.874Z,92289.25
2023-03-15T15:51:21.175Z,92293.84
2023-03-15T15:53:48.401Z,92292.66
2023-03-15T15:56:15.863Z,92294.44
2023-03-15T15:58:43.407Z,92302.56
2023-03-15T16:01:14.310Z,92297.84
2023-03-15T16:03:41.835Z,92307.72
2023-03-15T16:06:15.770Z,92312.88
2023-03-15T16:08:42.856Z,92319.38
2023-03-15T16:11:11.982Z,92314.84
2023-03-15T16:13:38.977Z,92319.00
2023-03-15T16:16:06.328Z,92312.88
2023-03-15T16:18:34.746Z,92316.03
2023-03-15T16:21:01.629Z,92316.81
2023-03-15T16:23:28.583Z,92313.84
2023-03-15T16:25:55.844Z,92314.22
2023-03-15T16:28:23.077Z,92317.81
2023-03-15T16:30:51.227Z,92319.38
2023-03-15T16:33:20.143Z,92318.97
2023-03-15T16:35:50.268Z,92319.97
2023-03-15T16:38:24.514Z,92320.56
2023-03-15T16:40:52.398Z,92321.34
2023-03-15T16:43:19.608Z,92325.31
2023-03-15T16:45:46.926Z,92330.25
2023-03-15T16:48:14.462Z,92334.00
2023-03-15T16:50:42.558Z,92337.56
2023-03-15T16:53:13.182Z,92349.41
2023-03-15T16:55:40.527Z,92341.69
2023-03-15T16:58:15.362Z,92346.63
2023-03-15T17:00:44.457Z,92352.31
2023-03-15T17:03:12.742Z,92361.59
2023-03-15T17:05:41.133Z,92363.50
2023-03-15T17:08:12.887Z,92372.22
2023-03-15T17:10:40.821Z,92375.94
2023-03-15T17:13:07.711Z,92374.38
2023-03-15T17:15:34.721Z,92378.34
2023-03-15T17:18:02.794Z,92375.94
2023-03-15T17:20:30.796Z,92385.44
2023-03-15T17:23:03.958Z,92388.53
2023-03-15T17:25:33.943Z,92388.91
2023-03-15T17:28:01.351Z,92389.69
2023-03-15T17:30:29.663Z,92395.81
2023-03-15T17:32:56.853Z,92391.44
2023-03-15T17:35:27.123Z,92400.50
2023-03-15T17:37:54.200Z,92401.63
2023-03-15T17:40:23.395Z,92410.06
2023-03-15T17:42:52.732Z,92407.09
2023-03-15T17:45:21.439Z,92407.66
2023-03-15T17:47:48.827Z,92413.13
2023-03-15T17:50:16.958Z,92415.28
2023-03-15T17:52:44.432Z,92416.97
2023-03-15T17:55:15.778Z,92422.75
2023-03-15T17:57:45.757Z,92421.97
2023-03-15T18:00:22.170Z,92422.34
2023-03-15T18:02:55.745Z,92430.75
2023-03-15T18:05:25.558Z,92424.00
2023-03-15T18:08:00.531Z,92433.22
2023-03-15T18:10:32.878Z,92429.09
2023-03-15T18:12:59.867Z,92436.16
2023-03-15T18:15:28.304Z,92441.03
2023-03-15T18:17:55.244Z,92440.75
2023-03-15T18:20:24.070Z,92443.06
2023-03-15T18:22:51.471Z,92442.09
2023-03-15T18:25:21.578Z,92449.78
2023-03-15T18:27:49.255Z,92443.16
2023-03-15T18:30:18.751Z,92450.47
2023-03-15T18:32:47.744Z,92459.31
2023-03-15T18:35:16.707Z,92457.53
2023-03-15T18:37:43.713Z,92455.81
2023-03-15T18:40:13.728Z,92448.97
2023-03-15T18:42:40.993Z,92453.91
2023-03-15T18:45:10.994Z,92452.69
2023-03-15T18:47:38.112Z,92457.06
2023-03-15T18:50:10.605Z,92456.91
2023-03-15T18:52:37.958Z,92462.72
2023-03-15T18:55:07.842Z,92465.91
2023-03-15T18:57:34.817Z,92466.44
2023-03-15T19:00:01.893Z,92469.94
2023-03-15T19:02:28.970Z,92468.63
2023-03-15T19:04:57.589Z,92472.88
2023-03-15T19:07:27.726Z,92470.50
2023-03-15T19:09:54.641Z,92470.22
2023-03-15T19:12:21.918Z,92469.16
2023-03-15T19:14:48.984Z,92473.75
2023-03-15T19:17:17.539Z,92479.94
2023-03-15T19:19:44.252Z,92485.41
2023-03-15T19:22:11.163Z,92479.06
2023-03-15T19:24:39.476Z,92485.56
2023-03-15T19:27:06.536Z,92491.91
2023-03-15T19:29:33.649Z,92492.72
2023-03-15T19:32:01.121Z,92494.47
2023-03-15T19:34:28.193Z,92488.75
2023-03-15T19:36:55.149Z,92493.38
2023-03-15T19:39:22.099Z,92494.13
2023-03-15T19:41:50.593Z,92504.16
2023-03-15T19:44:17.486Z,92511.84
2023-03-15T19:46:45.434Z,92512.91
2023-03-15T19:49:12.606Z,92518.47
2023-03-15T19:51:39.636Z,92513.91
2023-03-15T19:54:06.595Z,92524.56
2023-03-15T19:56:33.953Z,92521.13
2023-03-15T19:59:03.173Z,92519.88
2023-03-15T20:01:30.330Z,92518.63
2023-03-15T20:03:57.324Z,92516.53
2023-03-15T20:06:24.430Z,92523.06
2023-03-15T20:08:51.377Z,92531.03
2023-03-15T20:11:25.084Z,92529.88
2023-03-15T20:13:52.579Z,92528.53
2023-03-15T20:16:21.856Z,92532.81
2023-03-15T20:18:51.071Z,92535.44
2023-03-15T20:21:18.397Z,92535.13
2023-03-15T20:23:45.560Z,92543.59
2023-03-15T20:26:14.035Z,92538.72
2023-03-15T20:28:41.404Z,92539.34
2023-03-15T20:31:09.500Z,92539.88
2023-03-15T20:33:38.035Z,92540.41
2023-03-15T20:36:05.255Z,92548.59
2023-03-15T20:38:34.343Z,92555.66
2023-03-15T20:41:01.416Z,92552.00
2023-03-15T20:43:28.355Z,92549.97
2023-03-15T20:45:56.160Z,92550.97
2023-03-15T20:48:24.810Z,92556.81
2023-03-15T20:50:53.017Z,92555.06
2023-03-15T20:53:20.446Z,92557.06
2023-03-15T20:55:47.552Z,92563.47
2023-03-15T20:58:14.544Z,92568.13
2023-03-15T21:00:43.133Z,92569.09
2023-03-15T21:03:11.647Z,92580.06
2023-03-15T21:05:40.328Z,92574.91
2023-03-15T21:08:09.507Z,92581.19
2023-03-15T21:10:36.940Z,92574.75
2023-03-15T21:13:09.484Z,92592.19
2023-03-15T21:15:45.801Z,92593.53
2023-03-15T21:18:13.153Z,92608.09
2023-03-15T21:20:40.264Z,92601.47
2023-03-15T21:23:09.034Z,92613.88
2023-03-15T21:25:36.374Z,92615.13
2023-03-15T21:28:04.243Z,92624.34
2023-03-15T21:30:31.429Z,92621.13
2023-03-15T21:32:58.423Z,92623.81
2023-03-15T21:35:26.251Z,92629.69
2023-03-15T21:37:53.318Z,92631.88
2023-03-15T21:40:21.880Z,92631.53
2023-03-15T21:42:49.717Z,92642.19
2023-03-15T21:45:16.936Z,92632.66
2023-03-15T21:47:46.990Z,92646.16
2023-03-15T21:50:14.069Z,92644.78
2023-03-15T21:52:40.973Z,92644.66
2023-03-15T21:55:09.120Z,92638.28
2023-03-15T21:57:37.617Z,92642.44
2023-03-15T22:00:11.768Z,92644.50
2023-03-15T22:02:38.932Z,92647.81
2023-03-15T22:05:06.234Z,92655.97
2023-03-15T22:07:34.051Z,92660.91
2023-03-15T22:10:00.986Z,92658.28
2023-03-15T22:12:28.173Z,92662.19
2023-03-15T22:15:05.373Z,92666.25
2023-03-15T22:17:32.766Z,92670.00
2023-03-15T22:19:59.680Z,92668.91
2023-03-15T22:22:26.926Z,92668.03
2023-03-15T22:24:53.883Z,92664.00
2023-03-15T22:27:20.839Z,92669.91
2023-03-15T22:29:47.776Z,92677.50
2023-03-15T22:32:16.098Z,92675.66
2023-03-15T22:34:46.821Z,92681.34
2023-03-15T22:37:13.725Z,92677.94
2023-03-15T22:39:43.069Z,92690.34
2023-03-15T22:42:10.347Z,92687.03
2023-03-15T22:44:37.275Z,92687.16
2023-03-15T22:47:04.267Z,92695.50
2023-03-15T22:49:32.608Z,92692.09
2023-03-15T22:51:59.576Z,92694.00
2023-03-15T22:54:26.461Z,92702.69
2023-03-15T22:56:53.368Z,92701.38
2023-03-15T22:59:20.488Z,92704.03
2023-03-15T23:01:47.657Z,92706.59
2023-03-15T23:04:14.605Z,92709.13
2023-03-15T23:06:42.980Z,92716.47
2023-03-15T23:09:10.757Z,92718.53
2023-03-15T23:11:37.727Z,92720.34
2023-03-15T23:14:04.757Z,92723.97
2023-03-15T23:16:32.059Z,92730.91
2023-03-15T23:18:59.162Z,92727.06
2023-03-15T23:21:26.331Z,92738.56
2023-03-15T23:23:54.693Z,92738.75
2023-03-15T23:26:25.279Z,92733.78
2023-03-15T23:28:52.360Z,92734.22
2023-03-15T23:31:21.168Z,92742.50
2023-03-15T23:33:48.172Z,92742.13
2023-03-15T23:36:15.489Z,92738.81
2023-03-15T23:38:42.485Z,92737.75
2023-03-15T23:41:12.550Z,92743.63
2023-03-15T23:43:39.574Z,92743.63
2023-03-15T23:46:06.727Z,92747.94
2023-03-15T23:48:35.277Z,92749.41
2023-03-15T23:51:05.723Z,92755.28
2023-03-15T23:53:32.814Z,92756.38
2023-03-15T23:55:59.984Z,92753.84
2023-03-15T23:58:28.524Z,92756.78
